This is the latest recevied weather packets stored in our database for station/object SR5MRF. If no packets are shown the sender has not sent any weather packets the latest 1 day(s).
| Time | Temp. | Humidity | Pressure | Rain* | Wind** | Luminosity | Snow |
|---|---|---|---|---|---|---|---|
| 1778053720 | 27.78° C | 36% | 1002.6 hPa | 0 mm | - | - | - |
| 1778052699 | 26.67° C | 39% | 1002.7 hPa | 0 mm | - | - | - |
| 1778052520 | 26.11° C | 40% | 1002.7 hPa | 0 mm | - | - | - |
| 1778052279 | 26.11° C | 40% | 1002.8 hPa | 0 mm | - | - | - |
| 1778051920 | 25.56° C | 41% | 1003 hPa | 0 mm | - | - | - |
| 1778050720 | 23.89° C | 45% | 1002.9 hPa | 0 mm | - | - | - |
| 1778047120 | 18.89° C | 61% | 1003.3 hPa | 0 mm | - | - | - |
| 1778046520 | 17.22° C | 66% | 1003.3 hPa | 0 mm | - | - | - |
| 1778044120 | 13.33° C | 77% | 1003.5 hPa | 0 mm | - | - | - |
| 1778041359 | 12.78° C | 78% | 1003.6 hPa | 0 mm | - | - | - |
| 1778041122 | 12.78° C | 78% | 1003.6 hPa | 0 mm | - | - | - |
| 1778040519 | 12.78° C | 77% | 1003.4 hPa | 0 mm | - | - | - |
| 1778039259 | 12.22° C | 76% | 1003.7 hPa | 0 mm | - | - | - |
| 1778038839 | 12.22° C | 76% | 1003.7 hPa | 0 mm | - | - | - |
| 1778038419 | 12.22° C | 75% | 1003.4 hPa | 0 mm | - | - | - |
| 1778037580 | 12.22° C | 75% | 1003.6 hPa | 0 mm | - | - | - |
| 1778037520 | 12.22° C | 75% | 1003.5 hPa | 0 mm | - | - | - |
| 1778035480 | 12.78° C | 73% | 1003.7 hPa | 0 mm | - | - | - |
| 1778035060 | 12.78° C | 73% | 1003.7 hPa | 0 mm | - | - | - |
| 1778034640 | 13.33° C | 72% | 1003.8 hPa | 0 mm | - | - | - |
| 1778034220 | 13.33° C | 72% | 1003.8 hPa | 0 mm | - | - | - |
| 1778033920 | 13.33° C | 71% | 1003.9 hPa | 0 mm | - | - | - |
| 1778033800 | 13.33° C | 71% | 1004 hPa | 0 mm | - | - | - |
| 1778033380 | 13.33° C | 71% | 1004 hPa | 0 mm | - | - | - |
| 1778033321 | 13.33° C | 70% | 1003.9 hPa | 0 mm | - | - | - |
* Rain latest hour (hover to see other rain measurements)
** Current wind speed in m/s (hover to see current wind gust speed)